createdAt,value
2019-03-22T00:00:50.288Z,15.88
2019-03-22T00:03:52.548Z,15.81
2019-03-22T00:06:54.824Z,15.69
2019-03-22T00:09:57.101Z,15.69
2019-03-22T00:12:59.849Z,15.63
2019-03-22T00:16:02.103Z,15.50
2019-03-22T00:19:04.306Z,15.44
2019-03-22T00:22:06.510Z,15.44
2019-03-22T00:25:09.209Z,15.38
2019-03-22T00:28:11.355Z,15.31
2019-03-22T00:31:14.813Z,15.25
2019-03-22T00:34:16.959Z,15.19
2019-03-22T00:37:19.108Z,15.13
2019-03-22T00:40:21.389Z,15.06
2019-03-22T00:43:23.539Z,15.00
2019-03-22T00:46:25.797Z,14.94
2019-03-22T00:49:27.960Z,14.87
2019-03-22T00:52:30.105Z,14.81
2019-03-22T00:55:32.337Z,14.75
2019-03-22T00:58:34.489Z,14.69
2019-03-22T01:01:36.641Z,14.69
2019-03-22T01:04:38.801Z,14.56
2019-03-22T01:07:41.098Z,14.50
2019-03-22T01:10:43.252Z,14.50
2019-03-22T01:13:45.484Z,14.44
2019-03-22T01:16:47.633Z,14.38
2019-03-22T01:19:49.971Z,14.31
2019-03-22T01:22:53.781Z,14.25
2019-03-22T01:25:55.943Z,14.19
2019-03-22T01:28:58.195Z,14.19
2019-03-22T01:32:00.422Z,14.13
2019-03-22T01:35:02.694Z,14.06
2019-03-22T01:38:04.993Z,14.00
2019-03-22T01:41:07.173Z,13.94
2019-03-22T01:44:09.410Z,13.94
2019-03-22T01:47:11.662Z,13.88
2019-03-22T01:50:14.918Z,13.81
2019-03-22T01:53:17.083Z,13.75
2019-03-22T01:56:19.362Z,13.75
2019-03-22T01:59:21.546Z,13.69
2019-03-22T02:02:24.122Z,13.62
2019-03-22T02:05:26.317Z,13.62
2019-03-22T02:08:28.485Z,13.56
2019-03-22T02:11:30.657Z,13.50
2019-03-22T02:14:32.833Z,13.50
2019-03-22T02:17:35.056Z,13.44
2019-03-22T02:20:37.195Z,13.38
2019-03-22T02:23:39.427Z,13.31
2019-03-22T02:26:41.581Z,13.31
2019-03-22T02:29:44.522Z,13.25
2019-03-22T02:32:46.782Z,13.19
2019-03-22T02:35:48.960Z,13.19
2019-03-22T02:38:51.138Z,13.13
2019-03-22T02:41:53.407Z,13.06
2019-03-22T02:44:55.580Z,13.06
2019-03-22T02:47:57.750Z,13.00
2019-03-22T02:50:59.926Z,12.94
2019-03-22T02:54:02.230Z,12.94
2019-03-22T02:57:05.519Z,12.88
2019-03-22T03:00:09.396Z,12.81
2019-03-22T03:03:11.585Z,12.75
2019-03-22T03:06:13.804Z,12.75
2019-03-22T03:09:15.982Z,12.69
2019-03-22T03:12:18.156Z,12.63
2019-03-22T03:15:20.547Z,12.63
2019-03-22T03:18:22.778Z,12.56
2019-03-22T03:21:24.951Z,12.50
2019-03-22T03:24:27.105Z,12.50
2019-03-22T03:27:29.330Z,12.37
2019-03-22T03:30:31.641Z,12.37
2019-03-22T03:33:33.816Z,12.31
2019-03-22T03:36:35.951Z,12.31
2019-03-22T03:39:38.114Z,12.25
2019-03-22T03:42:40.348Z,12.19
2019-03-22T03:45:42.569Z,12.13
2019-03-22T03:48:44.796Z,12.13
2019-03-22T03:51:47.058Z,12.06
2019-03-22T03:54:49.304Z,12.06
2019-03-22T03:57:51.521Z,12.00
2019-03-22T04:00:53.717Z,11.94
2019-03-22T04:03:55.908Z,11.88
2019-03-22T04:06:58.062Z,11.81
2019-03-22T04:10:00.272Z,11.81
2019-03-22T04:13:02.761Z,11.81
2019-03-22T04:16:04.921Z,11.75
2019-03-22T04:19:07.190Z,11.69
2019-03-22T04:22:12.479Z,11.69
2019-03-22T04:25:14.713Z,11.63
2019-03-22T04:28:19.207Z,11.56
2019-03-22T04:31:21.390Z,11.56
2019-03-22T04:34:23.591Z,11.50
2019-03-22T04:37:25.763Z,11.50
2019-03-22T04:40:29.254Z,11.44
2019-03-22T04:43:31.467Z,11.38
2019-03-22T04:46:34.152Z,11.38
2019-03-22T04:49:37.978Z,11.31
2019-03-22T04:52:40.163Z,11.31
2019-03-22T04:55:45.330Z,11.25
2019-03-22T04:58:50.044Z,11.19
2019-03-22T05:01:54.933Z,11.19
2019-03-22T05:04:57.492Z,11.12
2019-03-22T05:08:00.260Z,11.06
2019-03-22T05:11:04.129Z,11.06
2019-03-22T05:14:07.820Z,11.00
2019-03-22T05:17:11.022Z,11.00
2019-03-22T05:20:14.057Z,11.00
2019-03-22T05:23:17.925Z,10.94
2019-03-22T05:26:21.691Z,10.88
2019-03-22T05:29:30.470Z,10.88
2019-03-22T05:32:29.135Z,10.81
2019-03-22T05:35:31.297Z,10.81
2019-03-22T05:38:33.429Z,10.75
2019-03-22T05:41:35.568Z,10.75
2019-03-22T05:44:37.743Z,10.75
2019-03-22T05:47:39.932Z,10.75
2019-03-22T05:50:42.068Z,10.69
2019-03-22T05:53:44.248Z,10.69
2019-03-22T05:56:46.378Z,10.69
2019-03-22T05:59:48.536Z,10.69
2019-03-22T06:02:51.887Z,10.69
2019-03-22T06:05:54.007Z,10.69
2019-03-22T06:08:56.128Z,10.69
2019-03-22T06:11:58.309Z,10.69
2019-03-22T06:15:01.111Z,10.69
2019-03-22T06:18:03.324Z,10.69
2019-03-22T06:21:05.476Z,10.69
2019-03-22T06:24:07.609Z,10.75
2019-03-22T06:27:10.622Z,10.75
2019-03-22T06:30:13.685Z,10.88
2019-03-22T06:33:15.838Z,11.00
2019-03-22T06:36:17.981Z,11.12
2019-03-22T06:39:20.112Z,11.31
2019-03-22T06:42:22.274Z,11.31
2019-03-22T06:45:24.446Z,11.31
2019-03-22T06:48:26.585Z,11.38
2019-03-22T06:51:28.806Z,11.50
2019-03-22T06:54:32.112Z,11.56
2019-03-22T06:57:34.307Z,11.63
2019-03-22T07:00:36.432Z,11.75
2019-03-22T07:03:38.640Z,11.88
2019-03-22T07:06:40.795Z,12.00
2019-03-22T07:09:42.956Z,12.06
2019-03-22T07:12:45.193Z,12.19
2019-03-22T07:15:47.339Z,12.31
2019-03-22T07:18:49.500Z,12.44
2019-03-22T07:21:51.711Z,12.50
2019-03-22T07:24:53.903Z,12.63
2019-03-22T07:27:56.079Z,12.75
2019-03-22T07:30:58.265Z,12.88
2019-03-22T07:34:00.445Z,12.94
2019-03-22T07:37:04.277Z,13.06
2019-03-22T07:40:07.407Z,13.19
2019-03-22T07:43:09.583Z,13.25
2019-03-22T07:46:11.846Z,13.38
2019-03-22T07:49:14.051Z,13.56
2019-03-22T07:52:16.206Z,13.62
2019-03-22T07:55:18.340Z,13.75
2019-03-22T07:58:20.520Z,13.88
2019-03-22T08:01:22.686Z,14.00
2019-03-22T08:04:24.938Z,14.13
2019-03-22T08:07:27.095Z,14.25
2019-03-22T08:10:29.289Z,14.38
2019-03-22T08:13:31.472Z,14.50
2019-03-22T08:16:33.688Z,14.63
2019-03-22T08:19:35.893Z,14.75
2019-03-22T08:22:38.043Z,14.87
2019-03-22T08:25:40.291Z,15.00
2019-03-22T08:28:42.467Z,15.06
2019-03-22T08:31:44.641Z,15.19
2019-03-22T08:34:47.848Z,15.31
2019-03-22T08:37:52.945Z,15.44
2019-03-22T08:40:53.982Z,15.56
2019-03-22T08:43:56.167Z,15.69
2019-03-22T08:46:58.382Z,15.81
2019-03-22T08:50:00.671Z,16.00
2019-03-22T08:53:02.927Z,16.06
2019-03-22T08:56:05.162Z,16.25
2019-03-22T08:59:08.430Z,16.37
2019-03-22T09:02:10.628Z,16.56
2019-03-22T09:05:13.176Z,16.69
2019-03-22T09:08:16.208Z,16.81
2019-03-22T09:11:18.539Z,16.94
2019-03-22T09:14:20.861Z,17.12
2019-03-22T09:17:23.275Z,17.25
2019-03-22T09:20:25.532Z,17.44
2019-03-22T09:23:27.715Z,17.56
2019-03-22T09:26:29.873Z,17.69
2019-03-22T09:29:32.156Z,17.81
2019-03-22T09:32:34.448Z,17.94
2019-03-22T09:35:36.791Z,18.12
2019-03-22T09:38:38.995Z,18.25
2019-03-22T09:41:41.236Z,18.44
2019-03-22T09:44:44.499Z,18.62
2019-03-22T09:47:47.496Z,18.75
2019-03-22T09:50:49.769Z,18.87
2019-03-22T09:53:51.988Z,19.06
2019-03-22T09:56:54.179Z,19.31
2019-03-22T09:59:56.351Z,19.44
2019-03-22T10:02:58.689Z,19.62
2019-03-22T10:06:00.889Z,19.81
2019-03-22T10:09:05.493Z,20.00
2019-03-22T10:12:07.952Z,20.19
2019-03-22T10:15:10.400Z,20.37
2019-03-22T10:18:12.819Z,20.62
2019-03-22T10:21:22.467Z,20.88
2019-03-22T10:24:18.864Z,21.06
2019-03-22T10:27:21.070Z,21.19
2019-03-22T10:30:23.293Z,21.37
2019-03-22T10:33:25.525Z,21.62
2019-03-22T10:36:27.733Z,21.87
2019-03-22T10:39:29.941Z,22.13
2019-03-22T10:42:32.206Z,22.44
2019-03-22T10:45:34.474Z,22.75
2019-03-22T10:48:36.674Z,22.94
2019-03-22T10:51:38.907Z,23.12
2019-03-22T10:54:41.166Z,23.25
2019-03-22T10:57:43.431Z,23.38
2019-03-22T11:00:45.718Z,23.56
2019-03-22T11:03:48.057Z,23.75
2019-03-22T11:06:50.509Z,23.94
2019-03-22T11:09:52.790Z,24.19
2019-03-22T11:12:56.680Z,24.69
2019-03-22T11:16:00.559Z,26.31
2019-03-22T11:19:02.838Z,27.56
2019-03-22T11:22:05.066Z,28.56
2019-03-22T11:25:08.178Z,28.94
2019-03-22T11:28:12.067Z,29.12
2019-03-22T11:31:15.518Z,29.75
2019-03-22T11:34:17.754Z,30.31
2019-03-22T11:37:20.045Z,31.00
2019-03-22T11:40:22.604Z,31.37
2019-03-22T11:43:25.694Z,31.37
2019-03-22T11:46:27.962Z,31.44
2019-03-22T11:49:30.219Z,31.44
2019-03-22T11:52:32.447Z,31.44
2019-03-22T11:55:34.694Z,31.69
2019-03-22T11:58:36.955Z,31.25
2019-03-22T12:01:39.199Z,31.37
2019-03-22T12:04:41.503Z,31.37
2019-03-22T12:07:43.746Z,31.62
2019-03-22T12:10:45.997Z,31.75
2019-03-22T12:13:48.240Z,31.62
2019-03-22T12:16:50.485Z,31.50
2019-03-22T12:19:52.779Z,30.94
2019-03-22T12:22:55.014Z,30.37
2019-03-22T12:25:57.268Z,30.06
2019-03-22T12:28:59.525Z,30.06
2019-03-22T12:32:01.765Z,30.06
2019-03-22T12:35:04.241Z,30.12
2019-03-22T12:38:06.583Z,30.19
2019-03-22T12:41:08.852Z,30.37
2019-03-22T12:44:12.167Z,30.62
2019-03-22T12:47:14.412Z,30.69
2019-03-22T12:50:16.857Z,30.94
2019-03-22T12:53:19.139Z,31.00
2019-03-22T12:56:21.486Z,31.25
2019-03-22T12:59:23.721Z,31.37
2019-03-22T13:02:26.059Z,31.37
2019-03-22T13:05:28.393Z,31.56
2019-03-22T13:08:30.613Z,31.25
2019-03-22T13:11:32.864Z,31.44
2019-03-22T13:14:35.126Z,31.25
2019-03-22T13:17:37.375Z,31.00
2019-03-22T13:20:39.692Z,30.81
2019-03-22T13:23:41.959Z,30.81
2019-03-22T13:26:44.207Z,30.88
2019-03-22T13:29:46.492Z,30.94
2019-03-22T13:32:52.281Z,31.12
2019-03-22T13:35:52.709Z,31.87
2019-03-22T13:38:54.967Z,32.63
2019-03-22T13:41:57.242Z,32.88
2019-03-22T13:44:59.462Z,33.25
2019-03-22T13:48:01.724Z,33.44
2019-03-22T13:51:03.973Z,33.56
2019-03-22T13:54:06.244Z,33.69
2019-03-22T13:57:08.503Z,33.69
2019-03-22T14:00:11.442Z,33.06
2019-03-22T14:03:13.771Z,32.69
2019-03-22T14:06:16.008Z,32.38
2019-03-22T14:09:18.258Z,32.13
2019-03-22T14:12:20.516Z,32.13
2019-03-22T14:15:22.823Z,32.38
2019-03-22T14:18:25.073Z,32.56
2019-03-22T14:21:27.311Z,32.75
2019-03-22T14:24:29.544Z,32.69
2019-03-22T14:27:31.749Z,32.81
2019-03-22T14:30:33.981Z,33.06
2019-03-22T14:33:36.230Z,33.13
2019-03-22T14:36:38.463Z,33.00
2019-03-22T14:39:41.814Z,33.13
2019-03-22T14:42:44.071Z,33.25
2019-03-22T14:45:46.315Z,32.75
2019-03-22T14:48:48.556Z,32.25
2019-03-22T14:51:50.809Z,32.81
2019-03-22T14:54:53.045Z,32.75
2019-03-22T14:57:55.286Z,33.06
2019-03-22T15:00:57.587Z,33.06
2019-03-22T15:03:59.884Z,33.50
2019-03-22T15:07:02.162Z,33.63
2019-03-22T15:10:05.445Z,33.44
2019-03-22T15:13:07.811Z,33.06
2019-03-22T15:16:19.823Z,32.94
2019-03-22T15:19:42.697Z,32.75
2019-03-22T15:23:16.068Z,32.69
2019-03-22T15:26:35.815Z,32.31
2019-03-22T15:29:59.797Z,32.31
2019-03-22T15:33:34.429Z,32.38
2019-03-22T15:36:52.780Z,32.19
2019-03-22T15:40:04.995Z,32.00
2019-03-22T15:43:07.651Z,31.50
2019-03-22T15:46:09.903Z,31.37
2019-03-22T15:49:12.175Z,32.50
2019-03-22T15:52:14.417Z,32.69
2019-03-22T15:55:16.635Z,32.81
2019-03-22T15:58:18.866Z,32.94
2019-03-22T16:01:21.177Z,32.88
2019-03-22T16:04:23.440Z,32.00
2019-03-22T16:07:25.755Z,31.44
2019-03-22T16:10:28.009Z,31.00
2019-03-22T16:13:30.255Z,30.75
2019-03-22T16:16:32.520Z,30.62
2019-03-22T16:19:34.801Z,30.19
2019-03-22T16:22:37.086Z,30.12
2019-03-22T16:25:39.352Z,30.31
2019-03-22T16:28:41.691Z,30.44
2019-03-22T16:31:43.973Z,30.44
2019-03-22T16:34:46.237Z,31.00
2019-03-22T16:37:48.520Z,30.81
2019-03-22T16:40:50.817Z,30.69
2019-03-22T16:43:53.198Z,30.81
2019-03-22T16:46:55.467Z,30.62
2019-03-22T16:49:57.741Z,30.19
2019-03-22T16:53:05.958Z,30.00
2019-03-22T16:56:08.210Z,29.87
2019-03-22T16:59:10.456Z,29.31
2019-03-22T17:02:12.841Z,28.87
2019-03-22T17:05:15.403Z,28.87
2019-03-22T17:08:17.651Z,28.56
2019-03-22T17:11:19.896Z,28.12
2019-03-22T17:14:22.173Z,27.87
2019-03-22T17:17:24.411Z,27.75
2019-03-22T17:20:26.676Z,27.50
2019-03-22T17:23:29.002Z,27.25
2019-03-22T17:26:31.226Z,26.94
2019-03-22T17:29:33.519Z,26.44
2019-03-22T17:32:35.810Z,26.31
2019-03-22T17:35:38.101Z,26.06
2019-03-22T17:38:40.350Z,25.81
2019-03-22T17:41:42.615Z,25.62
2019-03-22T17:44:45.922Z,25.44
2019-03-22T17:47:48.331Z,25.25
2019-03-22T17:50:50.670Z,25.12
2019-03-22T17:53:52.927Z,25.06
2019-03-22T17:56:55.177Z,24.94
2019-03-22T17:59:57.440Z,24.81
2019-03-22T18:02:59.738Z,24.69
2019-03-22T18:06:02.004Z,24.56
2019-03-22T18:09:05.937Z,24.44
2019-03-22T18:12:08.363Z,24.31
2019-03-22T18:15:10.780Z,24.25
2019-03-22T18:18:13.020Z,24.12
2019-03-22T18:21:15.274Z,24.00
2019-03-22T18:24:17.529Z,23.87
2019-03-22T18:27:19.880Z,23.81
2019-03-22T18:30:22.123Z,23.94
2019-03-22T18:33:24.395Z,24.31
2019-03-22T18:36:26.725Z,24.50
2019-03-22T18:39:29.138Z,24.63
2019-03-22T18:42:31.403Z,24.69
2019-03-22T18:45:33.677Z,24.63
2019-03-22T18:48:35.978Z,24.56
2019-03-22T18:51:38.234Z,24.50
2019-03-22T18:54:40.536Z,24.44
2019-03-22T18:57:42.751Z,24.37
2019-03-22T19:00:45.001Z,24.25
2019-03-22T19:03:47.295Z,24.19
2019-03-22T19:06:49.555Z,24.06
2019-03-22T19:09:51.814Z,23.94
2019-03-22T19:12:54.022Z,23.81
2019-03-22T19:15:57.437Z,23.75
2019-03-22T19:18:59.704Z,23.62
2019-03-22T19:22:01.937Z,23.56
2019-03-22T19:25:04.444Z,23.44
2019-03-22T19:28:06.799Z,23.31
2019-03-22T19:31:09.063Z,23.25
2019-03-22T19:34:11.315Z,23.19
2019-03-22T19:37:13.607Z,23.12
2019-03-22T19:40:16.319Z,23.00
2019-03-22T19:43:18.645Z,22.94
2019-03-22T19:46:20.996Z,22.87
2019-03-22T19:49:23.264Z,22.75
2019-03-22T19:52:25.578Z,22.69
2019-03-22T19:55:27.847Z,22.56
2019-03-22T19:58:30.101Z,22.50
2019-03-22T20:01:32.419Z,22.44
2019-03-22T20:04:34.786Z,22.31
2019-03-22T20:07:37.033Z,22.25
2019-03-22T20:10:41.537Z,22.19
2019-03-22T20:13:43.814Z,22.13
2019-03-22T20:16:46.106Z,22.00
2019-03-22T20:19:48.407Z,21.94
2019-03-22T20:22:50.725Z,21.81
2019-03-22T20:25:53.015Z,21.75
2019-03-22T20:28:55.285Z,21.69
2019-03-22T20:31:57.673Z,21.56
2019-03-22T20:34:59.948Z,21.50
2019-03-22T20:38:02.207Z,21.44
2019-03-22T20:41:05.580Z,21.37
2019-03-22T20:44:07.864Z,21.25
2019-03-22T20:47:10.107Z,21.19
2019-03-22T20:50:12.597Z,21.12
2019-03-22T20:53:14.997Z,21.06
2019-03-22T20:56:17.265Z,20.94
2019-03-22T20:59:19.556Z,20.88
2019-03-22T21:02:21.858Z,20.81
2019-03-22T21:05:27.216Z,20.75
2019-03-22T21:08:28.090Z,20.69
2019-03-22T21:11:30.355Z,20.62
2019-03-22T21:14:32.596Z,20.50
2019-03-22T21:17:34.851Z,20.44
2019-03-22T21:20:37.184Z,20.37
2019-03-22T21:23:40.569Z,20.31
2019-03-22T21:26:42.856Z,20.25
2019-03-22T21:29:45.148Z,20.12
2019-03-22T21:32:47.397Z,20.06
2019-03-22T21:35:49.737Z,20.00
2019-03-22T21:38:51.978Z,19.94
2019-03-22T21:41:54.233Z,19.87
2019-03-22T21:44:56.517Z,19.81
2019-03-22T21:47:58.810Z,19.75
2019-03-22T21:51:01.141Z,19.69
2019-03-22T21:54:03.380Z,19.62
2019-03-22T21:57:05.630Z,19.56
2019-03-22T22:00:08.245Z,19.50
2019-03-22T22:03:10.520Z,19.44
2019-03-22T22:06:12.778Z,19.37
2019-03-22T22:09:15.132Z,19.31
2019-03-22T22:12:17.453Z,19.25
2019-03-22T22:15:19.733Z,19.19
2019-03-22T22:18:21.984Z,19.12
2019-03-22T22:21:24.224Z,19.06
2019-03-22T22:24:26.491Z,18.94
2019-03-22T22:27:28.694Z,18.94
2019-03-22T22:30:31.031Z,18.87
2019-03-22T22:33:33.294Z,18.75
2019-03-22T22:36:35.575Z,18.75
2019-03-22T22:39:37.828Z,18.69
2019-03-22T22:42:40.013Z,18.62
2019-03-22T22:45:42.356Z,18.56
2019-03-22T22:48:44.632Z,18.50
2019-03-22T22:51:46.895Z,18.44
2019-03-22T22:54:49.171Z,18.37
2019-03-22T22:57:51.423Z,18.31
2019-03-22T23:00:53.784Z,18.25
2019-03-22T23:03:57.671Z,18.19
2019-03-22T23:07:00.016Z,18.12
2019-03-22T23:10:02.304Z,18.06
2019-03-22T23:13:04.650Z,18.00
2019-03-22T23:16:07.106Z,17.94
2019-03-22T23:19:09.385Z,17.87
2019-03-22T23:22:11.668Z,17.81
2019-03-22T23:25:14.027Z,17.81
2019-03-22T23:28:16.371Z,17.69
2019-03-22T23:31:18.660Z,17.69
2019-03-22T23:34:20.961Z,17.62
2019-03-22T23:37:23.339Z,17.50
2019-03-22T23:40:25.638Z,17.50
2019-03-22T23:43:27.958Z,17.44
2019-03-22T23:46:30.248Z,17.37
2019-03-22T23:49:32.485Z,17.31
2019-03-22T23:52:34.735Z,17.25
2019-03-22T23:55:37.270Z,17.19
2019-03-22T23:58:39.759Z,17.12
